sensor_id;sensor_type;location;lat;lon;timestamp;pressure;altitude;pressure_sealevel;temperature
15079;BMP180;6932;51.438;5.470;2022-09-30T00:00:16;100424.00;;;15.50
15079;BMP180;6932;51.438;5.470;2022-09-30T00:02:44;100423.00;;;15.40
15079;BMP180;6932;51.438;5.470;2022-09-30T00:05:09;100424.00;;;15.40
15079;BMP180;6932;51.438;5.470;2022-09-30T00:07:35;100419.00;;;15.40
15079;BMP180;6932;51.438;5.470;2022-09-30T00:10:01;100419.00;;;15.30
15079;BMP180;6932;51.438;5.470;2022-09-30T00:12:27;100433.00;;;15.30
15079;BMP180;6932;51.438;5.470;2022-09-30T00:14:53;100432.00;;;15.30
15079;BMP180;6932;51.438;5.470;2022-09-30T00:17:19;100433.00;;;15.30
15079;BMP180;6932;51.438;5.470;2022-09-30T00:19:45;100434.00;;;15.30
15079;BMP180;6932;51.438;5.470;2022-09-30T00:22:11;100439.00;;;15.30
15079;BMP180;6932;51.438;5.470;2022-09-30T00:24:37;100445.00;;;15.30
15079;BMP180;6932;51.438;5.470;2022-09-30T00:27:03;100443.00;;;15.20
15079;BMP180;6932;51.438;5.470;2022-09-30T00:29:29;100439.00;;;15.20
15079;BMP180;6932;51.438;5.470;2022-09-30T00:31:54;100450.00;;;15.20
15079;BMP180;6932;51.438;5.470;2022-09-30T00:34:20;100444.00;;;15.10
15079;BMP180;6932;51.438;5.470;2022-09-30T00:36:51;100436.00;;;15.10
15079;BMP180;6932;51.438;5.470;2022-09-30T00:39:18;100437.00;;;15.10
15079;BMP180;6932;51.438;5.470;2022-09-30T00:41:49;100433.00;;;15.10
15079;BMP180;6932;51.438;5.470;2022-09-30T00:47:39;100430.00;;;15.10
15079;BMP180;6932;51.438;5.470;2022-09-30T00:50:31;100425.00;;;15.10
15079;BMP180;6932;51.438;5.470;2022-09-30T00:53:51;100428.00;;;15.10
15079;BMP180;6932;51.438;5.470;2022-09-30T00:56:29;100437.00;;;15.20
15079;BMP180;6932;51.438;5.470;2022-09-30T00:59:18;100440.00;;;15.20
15079;BMP180;6932;51.438;5.470;2022-09-30T01:01:44;100441.00;;;15.20
15079;BMP180;6932;51.438;5.470;2022-09-30T01:04:23;100430.00;;;15.20
15079;BMP180;6932;51.438;5.470;2022-09-30T01:06:50;100440.00;;;15.20
15079;BMP180;6932;51.438;5.470;2022-09-30T01:09:17;100432.00;;;15.20
15079;BMP180;6932;51.438;5.470;2022-09-30T01:11:43;100440.00;;;15.20
15079;BMP180;6932;51.438;5.470;2022-09-30T01:14:16;100443.00;;;15.20
15079;BMP180;6932;51.438;5.470;2022-09-30T01:17:14;100441.00;;;15.20
15079;BMP180;6932;51.438;5.470;2022-09-30T01:34:50;100431.00;;;15.00
15079;BMP180;6932;51.438;5.470;2022-09-30T01:37:43;100427.00;;;15.00
15079;BMP180;6932;51.438;5.470;2022-09-30T01:40:35;100435.00;;;14.90
15079;BMP180;6932;51.438;5.470;2022-09-30T01:45:45;100432.00;;;14.90
15079;BMP180;6932;51.438;5.470;2022-09-30T01:48:24;100437.00;;;14.90
15079;BMP180;6932;51.438;5.470;2022-09-30T01:51:01;100436.00;;;14.90
15079;BMP180;6932;51.438;5.470;2022-09-30T01:53:49;100443.00;;;14.90
15079;BMP180;6932;51.438;5.470;2022-09-30T01:56:33;100435.00;;;14.80
15079;BMP180;6932;51.438;5.470;2022-09-30T01:59:09;100436.00;;;14.80
15079;BMP180;6932;51.438;5.470;2022-09-30T02:01:54;100439.00;;;14.70
15079;BMP180;6932;51.438;5.470;2022-09-30T02:04:37;100444.00;;;14.70
15079;BMP180;6932;51.438;5.470;2022-09-30T02:07:12;100448.00;;;14.70
15079;BMP180;6932;51.438;5.470;2022-09-30T02:09:49;100444.00;;;14.60
15079;BMP180;6932;51.438;5.470;2022-09-30T02:12:20;100448.00;;;14.60
15079;BMP180;6932;51.438;5.470;2022-09-30T02:15:02;100442.00;;;14.60
15079;BMP180;6932;51.438;5.470;2022-09-30T02:17:34;100445.00;;;14.60
15079;BMP180;6932;51.438;5.470;2022-09-30T02:20:31;100443.00;;;14.50
15079;BMP180;6932;51.438;5.470;2022-09-30T02:23:30;100453.00;;;14.50
15079;BMP180;6932;51.438;5.470;2022-09-30T02:26:06;100442.00;;;14.50
15079;BMP180;6932;51.438;5.470;2022-09-30T02:28:41;100443.00;;;14.50
15079;BMP180;6932;51.438;5.470;2022-09-30T02:31:11;100454.00;;;14.40
15079;BMP180;6932;51.438;5.470;2022-09-30T02:33:43;100450.00;;;14.40
15079;BMP180;6932;51.438;5.470;2022-09-30T02:36:26;100448.00;;;14.40
15079;BMP180;6932;51.438;5.470;2022-09-30T02:39:04;100455.00;;;14.40
15079;BMP180;6932;51.438;5.470;2022-09-30T02:41:39;100446.00;;;14.40
15079;BMP180;6932;51.438;5.470;2022-09-30T02:44:06;100450.00;;;14.30
15079;BMP180;6932;51.438;5.470;2022-09-30T02:47:03;100449.00;;;14.40
15079;BMP180;6932;51.438;5.470;2022-09-30T02:50:02;100447.00;;;14.30
15079;BMP180;6932;51.438;5.470;2022-09-30T02:53:07;100456.00;;;14.30
15079;BMP180;6932;51.438;5.470;2022-09-30T02:59:05;100449.00;;;14.30
15079;BMP180;6932;51.438;5.470;2022-09-30T03:01:31;100456.00;;;14.30
15079;BMP180;6932;51.438;5.470;2022-09-30T03:04:03;100452.00;;;14.30
15079;BMP180;6932;51.438;5.470;2022-09-30T03:06:31;100451.00;;;14.30
15079;BMP180;6932;51.438;5.470;2022-09-30T03:08:57;100445.00;;;14.20
15079;BMP180;6932;51.438;5.470;2022-09-30T03:11:25;100447.00;;;14.30
15079;BMP180;6932;51.438;5.470;2022-09-30T03:14:33;100457.00;;;14.20
15079;BMP180;6932;51.438;5.470;2022-09-30T03:17:26;100454.00;;;14.20
15079;BMP180;6932;51.438;5.470;2022-09-30T03:20:23;100445.00;;;14.20
15079;BMP180;6932;51.438;5.470;2022-09-30T03:26:13;100465.00;;;14.10
15079;BMP180;6932;51.438;5.470;2022-09-30T03:32:18;100455.00;;;14.00
15079;BMP180;6932;51.438;5.470;2022-09-30T03:41:18;100469.00;;;14.00
15079;BMP180;6932;51.438;5.470;2022-09-30T03:43:59;100468.00;;;13.90
15079;BMP180;6932;51.438;5.470;2022-09-30T03:46:37;100462.00;;;13.90
15079;BMP180;6932;51.438;5.470;2022-09-30T03:49:11;100467.00;;;13.90
15079;BMP180;6932;51.438;5.470;2022-09-30T03:51:39;100463.00;;;13.90
15079;BMP180;6932;51.438;5.470;2022-09-30T03:54:11;100473.00;;;13.90
15079;BMP180;6932;51.438;5.470;2022-09-30T03:56:38;100480.00;;;13.80
15079;BMP180;6932;51.438;5.470;2022-09-30T03:59:21;100476.00;;;13.80
15079;BMP180;6932;51.438;5.470;2022-09-30T04:01:47;100480.00;;;13.80
15079;BMP180;6932;51.438;5.470;2022-09-30T04:04:13;100479.00;;;13.70
15079;BMP180;6932;51.438;5.470;2022-09-30T04:06:38;100487.00;;;13.70
15079;BMP180;6932;51.438;5.470;2022-09-30T04:09:04;100496.00;;;13.60
15079;BMP180;6932;51.438;5.470;2022-09-30T04:11:30;100496.00;;;13.60
15079;BMP180;6932;51.438;5.470;2022-09-30T04:13:56;100501.00;;;13.50
15079;BMP180;6932;51.438;5.470;2022-09-30T04:16:21;100505.00;;;13.50
15079;BMP180;6932;51.438;5.470;2022-09-30T04:18:47;100495.00;;;13.40
15079;BMP180;6932;51.438;5.470;2022-09-30T04:21:14;100502.00;;;13.40
15079;BMP180;6932;51.438;5.470;2022-09-30T04:23:42;100517.00;;;13.40
15079;BMP180;6932;51.438;5.470;2022-09-30T04:26:12;100518.00;;;13.30
15079;BMP180;6932;51.438;5.470;2022-09-30T04:28:38;100529.00;;;13.30
15079;BMP180;6932;51.438;5.470;2022-09-30T04:31:05;100528.00;;;13.20
15079;BMP180;6932;51.438;5.470;2022-09-30T04:33:31;100533.00;;;13.20
15079;BMP180;6932;51.438;5.470;2022-09-30T04:35:59;100539.00;;;13.20
15079;BMP180;6932;51.438;5.470;2022-09-30T04:38:26;100534.00;;;13.20
15079;BMP180;6932;51.438;5.470;2022-09-30T04:40:53;100534.00;;;13.20
15079;BMP180;6932;51.438;5.470;2022-09-30T04:43:20;100529.00;;;13.20
15079;BMP180;6932;51.438;5.470;2022-09-30T04:45:49;100522.00;;;13.20
15079;BMP180;6932;51.438;5.470;2022-09-30T04:48:15;100532.00;;;13.20
15079;BMP180;6932;51.438;5.470;2022-09-30T04:50:42;100539.00;;;13.20
15079;BMP180;6932;51.438;5.470;2022-09-30T04:53:11;100545.00;;;13.20
15079;BMP180;6932;51.438;5.470;2022-09-30T04:55:42;100536.00;;;13.20
15079;BMP180;6932;51.438;5.470;2022-09-30T04:58:09;100543.00;;;13.20
15079;BMP180;6932;51.438;5.470;2022-09-30T05:00:35;100545.00;;;13.20
15079;BMP180;6932;51.438;5.470;2022-09-30T05:03:01;100549.00;;;13.20
15079;BMP180;6932;51.438;5.470;2022-09-30T05:05:28;100556.00;;;13.20
15079;BMP180;6932;51.438;5.470;2022-09-30T05:08:02;100551.00;;;13.20
15079;BMP180;6932;51.438;5.470;2022-09-30T05:10:28;100548.00;;;13.20
15079;BMP180;6932;51.438;5.470;2022-09-30T05:12:55;100555.00;;;13.10
15079;BMP180;6932;51.438;5.470;2022-09-30T05:15:23;100558.00;;;13.10
15079;BMP180;6932;51.438;5.470;2022-09-30T05:17:49;100562.00;;;13.10
15079;BMP180;6932;51.438;5.470;2022-09-30T05:20:15;100557.00;;;13.10
15079;BMP180;6932;51.438;5.470;2022-09-30T05:22:40;100559.00;;;13.10
15079;BMP180;6932;51.438;5.470;2022-09-30T05:25:07;100557.00;;;13.10
15079;BMP180;6932;51.438;5.470;2022-09-30T05:27:33;100563.00;;;13.10
15079;BMP180;6932;51.438;5.470;2022-09-30T05:29:58;100571.00;;;13.10
15079;BMP180;6932;51.438;5.470;2022-09-30T05:32:24;100567.00;;;13.10
15079;BMP180;6932;51.438;5.470;2022-09-30T05:34:50;100567.00;;;13.10
15079;BMP180;6932;51.438;5.470;2022-09-30T05:37:16;100565.00;;;13.10
15079;BMP180;6932;51.438;5.470;2022-09-30T05:39:42;100564.00;;;13.10
15079;BMP180;6932;51.438;5.470;2022-09-30T05:42:08;100565.00;;;13.10
15079;BMP180;6932;51.438;5.470;2022-09-30T05:44:34;100576.00;;;13.10
15079;BMP180;6932;51.438;5.470;2022-09-30T05:47:00;100582.00;;;13.00
15079;BMP180;6932;51.438;5.470;2022-09-30T05:49:25;100583.00;;;13.00
15079;BMP180;6932;51.438;5.470;2022-09-30T05:51:52;100595.00;;;13.00
15079;BMP180;6932;51.438;5.470;2022-09-30T05:54:18;100603.00;;;13.00
15079;BMP180;6932;51.438;5.470;2022-09-30T05:56:43;100607.00;;;13.00
15079;BMP180;6932;51.438;5.470;2022-09-30T05:59:09;100611.00;;;13.00
15079;BMP180;6932;51.438;5.470;2022-09-30T06:01:35;100613.00;;;13.00
15079;BMP180;6932;51.438;5.470;2022-09-30T06:04:01;100608.00;;;13.00
15079;BMP180;6932;51.438;5.470;2022-09-30T06:06:27;100613.00;;;13.00
15079;BMP180;6932;51.438;5.470;2022-09-30T06:08:54;100616.00;;;13.10
15079;BMP180;6932;51.438;5.470;2022-09-30T06:11:21;100625.00;;;13.10
15079;BMP180;6932;51.438;5.470;2022-09-30T06:13:50;100629.00;;;13.10
15079;BMP180;6932;51.438;5.470;2022-09-30T06:16:18;100622.00;;;13.10
15079;BMP180;6932;51.438;5.470;2022-09-30T06:18:44;100628.00;;;13.20
15079;BMP180;6932;51.438;5.470;2022-09-30T06:21:13;100632.00;;;13.20
15079;BMP180;6932;51.438;5.470;2022-09-30T06:23:40;100633.00;;;13.30
15079;BMP180;6932;51.438;5.470;2022-09-30T06:26:10;100631.00;;;13.30
15079;BMP180;6932;51.438;5.470;2022-09-30T06:28:38;100642.00;;;13.40
15079;BMP180;6932;51.438;5.470;2022-09-30T06:31:04;100635.00;;;13.50
15079;BMP180;6932;51.438;5.470;2022-09-30T06:33:31;100646.00;;;13.60
15079;BMP180;6932;51.438;5.470;2022-09-30T06:35:58;100658.00;;;13.60
15079;BMP180;6932;51.438;5.470;2022-09-30T06:38:24;100642.00;;;13.70
15079;BMP180;6932;51.438;5.470;2022-09-30T06:40:51;100639.00;;;13.70
15079;BMP180;6932;51.438;5.470;2022-09-30T06:43:17;100641.00;;;13.80
15079;BMP180;6932;51.438;5.470;2022-09-30T06:45:47;100640.00;;;13.80
15079;BMP180;6932;51.438;5.470;2022-09-30T06:48:16;100643.00;;;13.80
15079;BMP180;6932;51.438;5.470;2022-09-30T06:50:43;100652.00;;;13.80
15079;BMP180;6932;51.438;5.470;2022-09-30T06:53:11;100624.00;;;13.80
15079;BMP180;6932;51.438;5.470;2022-09-30T06:55:38;100636.00;;;13.80
15079;BMP180;6932;51.438;5.470;2022-09-30T06:58:13;100637.00;;;13.80
15079;BMP180;6932;51.438;5.470;2022-09-30T07:00:40;100635.00;;;13.80
15079;BMP180;6932;51.438;5.470;2022-09-30T07:03:06;100639.00;;;13.80
15079;BMP180;6932;51.438;5.470;2022-09-30T07:05:36;100639.00;;;13.70
15079;BMP180;6932;51.438;5.470;2022-09-30T07:08:02;100638.00;;;13.70
15079;BMP180;6932;51.438;5.470;2022-09-30T07:10:28;100638.00;;;13.70
15079;BMP180;6932;51.438;5.470;2022-09-30T07:12:54;100639.00;;;13.70
15079;BMP180;6932;51.438;5.470;2022-09-30T07:15:20;100644.00;;;13.80
15079;BMP180;6932;51.438;5.470;2022-09-30T07:17:54;100645.00;;;13.90
15079;BMP180;6932;51.438;5.470;2022-09-30T07:20:23;100642.00;;;14.00
15079;BMP180;6932;51.438;5.470;2022-09-30T07:22:49;100640.00;;;14.20
15079;BMP180;6932;51.438;5.470;2022-09-30T07:25:15;100628.00;;;14.40
15079;BMP180;6932;51.438;5.470;2022-09-30T07:27:42;100637.00;;;14.60
15079;BMP180;6932;51.438;5.470;2022-09-30T07:30:08;100646.00;;;14.70
15079;BMP180;6932;51.438;5.470;2022-09-30T07:32:35;100642.00;;;14.80
15079;BMP180;6932;51.438;5.470;2022-09-30T07:35:02;100634.00;;;14.90
15079;BMP180;6932;51.438;5.470;2022-09-30T07:37:28;100641.00;;;15.00
15079;BMP180;6932;51.438;5.470;2022-09-30T07:39:55;100648.00;;;15.10
15079;BMP180;6932;51.438;5.470;2022-09-30T07:42:21;100651.00;;;15.10
15079;BMP180;6932;51.438;5.470;2022-09-30T07:44:50;100651.00;;;15.30
15079;BMP180;6932;51.438;5.470;2022-09-30T07:47:18;100648.00;;;15.40
15079;BMP180;6932;51.438;5.470;2022-09-30T07:49:45;100654.00;;;15.60
15079;BMP180;6932;51.438;5.470;2022-09-30T07:52:11;100648.00;;;15.80
15079;BMP180;6932;51.438;5.470;2022-09-30T07:54:38;100652.00;;;16.00
15079;BMP180;6932;51.438;5.470;2022-09-30T07:57:04;100655.00;;;16.20
15079;BMP180;6932;51.438;5.470;2022-09-30T07:59:34;100651.00;;;16.40
15079;BMP180;6932;51.438;5.470;2022-09-30T08:02:00;100648.00;;;16.50
15079;BMP180;6932;51.438;5.470;2022-09-30T08:04:27;100653.00;;;16.70
15079;BMP180;6932;51.438;5.470;2022-09-30T08:06:58;100658.00;;;16.80
15079;BMP180;6932;51.438;5.470;2022-09-30T08:09:27;100655.00;;;17.00
15079;BMP180;6932;51.438;5.470;2022-09-30T08:11:53;100650.00;;;17.10
15079;BMP180;6932;51.438;5.470;2022-09-30T08:14:26;100649.00;;;17.30
15079;BMP180;6932;51.438;5.470;2022-09-30T08:16:53;100646.00;;;17.40
15079;BMP180;6932;51.438;5.470;2022-09-30T08:19:22;100645.00;;;17.60
15079;BMP180;6932;51.438;5.470;2022-09-30T08:21:49;100646.00;;;17.70
15079;BMP180;6932;51.438;5.470;2022-09-30T08:24:17;100660.00;;;17.90
15079;BMP180;6932;51.438;5.470;2022-09-30T08:26:43;100660.00;;;18.00
15079;BMP180;6932;51.438;5.470;2022-09-30T08:29:09;100657.00;;;18.20
15079;BMP180;6932;51.438;5.470;2022-09-30T08:31:40;100656.00;;;18.30
15079;BMP180;6932;51.438;5.470;2022-09-30T08:34:06;100647.00;;;18.40
15079;BMP180;6932;51.438;5.470;2022-09-30T08:36:31;100656.00;;;18.60
15079;BMP180;6932;51.438;5.470;2022-09-30T08:38:57;100662.00;;;18.70
15079;BMP180;6932;51.438;5.470;2022-09-30T08:41:48;100658.00;;;18.90
15079;BMP180;6932;51.438;5.470;2022-09-30T08:44:47;100655.00;;;19.10
15079;BMP180;6932;51.438;5.470;2022-09-30T08:47:55;100655.00;;;19.30
15079;BMP180;6932;51.438;5.470;2022-09-30T08:53:34;100656.00;;;19.70
15079;BMP180;6932;51.438;5.470;2022-09-30T08:56:04;100654.00;;;19.90
15079;BMP180;6932;51.438;5.470;2022-09-30T08:58:35;100660.00;;;20.00
15079;BMP180;6932;51.438;5.470;2022-09-30T09:01:19;100659.00;;;20.20
15079;BMP180;6932;51.438;5.470;2022-09-30T09:03:47;100676.00;;;20.30
15079;BMP180;6932;51.438;5.470;2022-09-30T09:07:07;100665.00;;;20.50
15079;BMP180;6932;51.438;5.470;2022-09-30T09:09:59;100663.00;;;20.70
15079;BMP180;6932;51.438;5.470;2022-09-30T09:20:49;100648.00;;;21.20
15079;BMP180;6932;51.438;5.470;2022-09-30T09:23:17;100564.00;;;21.20
15079;BMP180;6932;51.438;5.470;2022-09-30T09:25:43;100579.00;;;21.20
15079;BMP180;6932;51.438;5.470;2022-09-30T09:28:34;100580.00;;;21.00
15079;BMP180;6932;51.438;5.470;2022-09-30T09:31:03;100557.00;;;20.90
15079;BMP180;6932;51.438;5.470;2022-09-30T09:33:34;100560.00;;;20.90
15079;BMP180;6932;51.438;5.470;2022-09-30T09:39:59;100586.00;;;20.90
15079;BMP180;6932;51.438;5.470;2022-09-30T09:45:13;100587.00;;;20.90
15079;BMP180;6932;51.438;5.470;2022-09-30T09:47:40;100681.00;;;21.00
15079;BMP180;6932;51.438;5.470;2022-09-30T09:54:00;100661.00;;;21.50
15079;BMP180;6932;51.438;5.470;2022-09-30T09:56:29;100673.00;;;21.70
15079;BMP180;6932;51.438;5.470;2022-09-30T09:59:17;100661.00;;;21.90
15079;BMP180;6932;51.438;5.470;2022-09-30T10:04:27;100654.00;;;22.20
15079;BMP180;6932;51.438;5.470;2022-09-30T10:07:13;100650.00;;;22.30
15079;BMP180;6932;51.438;5.470;2022-09-30T10:09:41;100649.00;;;22.40
15079;BMP180;6932;51.438;5.470;2022-09-30T10:14:39;100646.00;;;22.60
15079;BMP180;6932;51.438;5.470;2022-09-30T10:17:25;100648.00;;;22.70
15079;BMP180;6932;51.438;5.470;2022-09-30T10:22:29;100657.00;;;22.80
15079;BMP180;6932;51.438;5.470;2022-09-30T10:25:23;100652.00;;;22.80
15079;BMP180;6932;51.438;5.470;2022-09-30T10:27:58;100655.00;;;22.80
15079;BMP180;6932;51.438;5.470;2022-09-30T10:30:43;100663.00;;;22.80
15079;BMP180;6932;51.438;5.470;2022-09-30T10:33:29;100660.00;;;22.90
15079;BMP180;6932;51.438;5.470;2022-09-30T10:36:08;100660.00;;;22.90
15079;BMP180;6932;51.438;5.470;2022-09-30T10:38:44;100661.00;;;23.00
15079;BMP180;6932;51.438;5.470;2022-09-30T10:41:11;100658.00;;;23.10
15079;BMP180;6932;51.438;5.470;2022-09-30T10:43:49;100656.00;;;23.10
15079;BMP180;6932;51.438;5.470;2022-09-30T10:46:29;100652.00;;;23.20
15079;BMP180;6932;51.438;5.470;2022-09-30T10:48:57;100655.00;;;23.20
15079;BMP180;6932;51.438;5.470;2022-09-30T10:51:32;100662.00;;;23.20
15079;BMP180;6932;51.438;5.470;2022-09-30T10:53:59;100669.00;;;23.20
15079;BMP180;6932;51.438;5.470;2022-09-30T10:56:44;100671.00;;;23.10
15079;BMP180;6932;51.438;5.470;2022-09-30T10:59:31;100670.00;;;23.10
15079;BMP180;6932;51.438;5.470;2022-09-30T11:05:16;100670.00;;;23.10
15079;BMP180;6932;51.438;5.470;2022-09-30T11:11:14;100659.00;;;23.10
15079;BMP180;6932;51.438;5.470;2022-09-30T11:19:38;100658.00;;;23.20
15079;BMP180;6932;51.438;5.470;2022-09-30T11:22:41;100652.00;;;23.20
15079;BMP180;6932;51.438;5.470;2022-09-30T11:25:15;100655.00;;;23.30
15079;BMP180;6932;51.438;5.470;2022-09-30T11:33:57;100654.00;;;23.50
15079;BMP180;6932;51.438;5.470;2022-09-30T11:39:55;100654.00;;;23.40
15079;BMP180;6932;51.438;5.470;2022-09-30T11:57:12;100635.00;;;22.90
15079;BMP180;6932;51.438;5.470;2022-09-30T11:59:50;100634.00;;;22.90
15079;BMP180;6932;51.438;5.470;2022-09-30T12:02:36;100639.00;;;22.80
15079;BMP180;6932;51.438;5.470;2022-09-30T12:07:59;100636.00;;;22.80
15079;BMP180;6932;51.438;5.470;2022-09-30T12:10:33;100642.00;;;22.80
15079;BMP180;6932;51.438;5.470;2022-09-30T12:13:18;100632.00;;;22.80
15079;BMP180;6932;51.438;5.470;2022-09-30T12:15:47;100619.00;;;22.80
15079;BMP180;6932;51.438;5.470;2022-09-30T12:18:19;100626.00;;;22.80
15079;BMP180;6932;51.438;5.470;2022-09-30T12:20:50;100617.00;;;22.80
15079;BMP180;6932;51.438;5.470;2022-09-30T12:23:31;100617.00;;;22.80
15079;BMP180;6932;51.438;5.470;2022-09-30T12:26:03;100612.00;;;22.80
15079;BMP180;6932;51.438;5.470;2022-09-30T12:28:59;100614.00;;;22.70
15079;BMP180;6932;51.438;5.470;2022-09-30T12:32:22;100614.00;;;22.70
15079;BMP180;6932;51.438;5.470;2022-09-30T12:49:37;100597.00;;;22.40
15079;BMP180;6932;51.438;5.470;2022-09-30T12:52:12;100594.00;;;22.50
15079;BMP180;6932;51.438;5.470;2022-09-30T12:54:56;100590.00;;;22.50
15079;BMP180;6932;51.438;5.470;2022-09-30T12:57:32;100594.00;;;22.50
15079;BMP180;6932;51.438;5.470;2022-09-30T13:00:26;100598.00;;;22.60
15079;BMP180;6932;51.438;5.470;2022-09-30T13:03:02;100595.00;;;22.60
15079;BMP180;6932;51.438;5.470;2022-09-30T13:23:53;100578.00;;;22.60
15079;BMP180;6932;51.438;5.470;2022-09-30T13:31:31;100578.00;;;22.60
15079;BMP180;6932;51.438;5.470;2022-09-30T13:39:28;100560.00;;;22.50
15079;BMP180;6932;51.438;5.470;2022-09-30T13:42:19;100564.00;;;22.50
15079;BMP180;6932;51.438;5.470;2022-09-30T13:47:43;100560.00;;;22.50
15079;BMP180;6932;51.438;5.470;2022-09-30T13:50:37;100549.00;;;22.50
15079;BMP180;6932;51.438;5.470;2022-09-30T13:53:14;100549.00;;;22.40
15079;BMP180;6932;51.438;5.470;2022-09-30T13:55:49;100546.00;;;22.40
15079;BMP180;6932;51.438;5.470;2022-09-30T14:04:12;100552.00;;;22.30
15079;BMP180;6932;51.438;5.470;2022-09-30T14:18:57;100506.00;;;22.20
15079;BMP180;6932;51.438;5.470;2022-09-30T14:24:15;100524.00;;;22.20
15079;BMP180;6932;51.438;5.470;2022-09-30T14:27:40;100514.00;;;22.10
15079;BMP180;6932;51.438;5.470;2022-09-30T14:30:22;100518.00;;;22.10
15079;BMP180;6932;51.438;5.470;2022-09-30T14:35:26;100521.00;;;22.10
15079;BMP180;6932;51.438;5.470;2022-09-30T14:38:04;100510.00;;;22.10
15079;BMP180;6932;51.438;5.470;2022-09-30T14:40:34;100514.00;;;22.10
15079;BMP180;6932;51.438;5.470;2022-09-30T14:43:05;100523.00;;;22.10
15079;BMP180;6932;51.438;5.470;2022-09-30T14:45:39;100508.00;;;22.10
15079;BMP180;6932;51.438;5.470;2022-09-30T14:48:12;100518.00;;;22.10
15079;BMP180;6932;51.438;5.470;2022-09-30T14:51:03;100509.00;;;22.00
15079;BMP180;6932;51.438;5.470;2022-09-30T14:53:34;100512.00;;;22.00
15079;BMP180;6932;51.438;5.470;2022-09-30T14:56:03;100518.00;;;22.00
15079;BMP180;6932;51.438;5.470;2022-09-30T14:58:41;100514.00;;;22.00
15079;BMP180;6932;51.438;5.470;2022-09-30T15:01:14;100516.00;;;21.90
15079;BMP180;6932;51.438;5.470;2022-09-30T15:03:56;100506.00;;;21.90
15079;BMP180;6932;51.438;5.470;2022-09-30T15:06:36;100500.00;;;21.90
15079;BMP180;6932;51.438;5.470;2022-09-30T15:09:15;100503.00;;;21.90
15079;BMP180;6932;51.438;5.470;2022-09-30T15:11:41;100514.00;;;21.90
15079;BMP180;6932;51.438;5.470;2022-09-30T15:14:17;100500.00;;;21.90
15079;BMP180;6932;51.438;5.470;2022-09-30T15:16:55;100502.00;;;21.90
15079;BMP180;6932;51.438;5.470;2022-09-30T15:19:32;100494.00;;;21.90
15079;BMP180;6932;51.438;5.470;2022-09-30T15:22:03;100496.00;;;21.80
15079;BMP180;6932;51.438;5.470;2022-09-30T15:24:31;100496.00;;;21.90
15079;BMP180;6932;51.438;5.470;2022-09-30T15:27:00;100500.00;;;21.90
15079;BMP180;6932;51.438;5.470;2022-09-30T15:29:27;100506.00;;;21.90
15079;BMP180;6932;51.438;5.470;2022-09-30T15:32:13;100504.00;;;21.90
15079;BMP180;6932;51.438;5.470;2022-09-30T15:34:42;100502.00;;;21.90
15079;BMP180;6932;51.438;5.470;2022-09-30T15:37:26;100509.00;;;21.90
15079;BMP180;6932;51.438;5.470;2022-09-30T15:39:59;100510.00;;;21.90
15079;BMP180;6932;51.438;5.470;2022-09-30T15:48:03;100503.00;;;21.90
15079;BMP180;6932;51.438;5.470;2022-09-30T15:50:45;100505.00;;;21.90
15079;BMP180;6932;51.438;5.470;2022-09-30T15:53:19;100512.00;;;21.90
15079;BMP180;6932;51.438;5.470;2022-09-30T15:55:49;100504.00;;;21.90
15079;BMP180;6932;51.438;5.470;2022-09-30T15:58:36;100502.00;;;21.90
15079;BMP180;6932;51.438;5.470;2022-09-30T16:01:17;100515.00;;;21.90
15079;BMP180;6932;51.438;5.470;2022-09-30T16:03:55;100516.00;;;21.90
15079;BMP180;6932;51.438;5.470;2022-09-30T16:09:05;100516.00;;;21.80
15079;BMP180;6932;51.438;5.470;2022-09-30T16:11:40;100531.00;;;21.80
15079;BMP180;6932;51.438;5.470;2022-09-30T16:14:29;100513.00;;;21.80
15079;BMP180;6932;51.438;5.470;2022-09-30T16:16:59;100510.00;;;21.80
15079;BMP180;6932;51.438;5.470;2022-09-30T16:19:27;100518.00;;;21.80
15079;BMP180;6932;51.438;5.470;2022-09-30T16:21:55;100516.00;;;21.80
15079;BMP180;6932;51.438;5.470;2022-09-30T16:26:55;100516.00;;;21.70
15079;BMP180;6932;51.438;5.470;2022-09-30T16:29:23;100511.00;;;21.70
15079;BMP180;6932;51.438;5.470;2022-09-30T16:31:53;100520.00;;;21.60
15079;BMP180;6932;51.438;5.470;2022-09-30T16:34:28;100512.00;;;21.60
15079;BMP180;6932;51.438;5.470;2022-09-30T16:37:10;100504.00;;;21.50
15079;BMP180;6932;51.438;5.470;2022-09-30T16:39:36;100508.00;;;21.50
15079;BMP180;6932;51.438;5.470;2022-09-30T16:42:02;100506.00;;;21.50
15079;BMP180;6932;51.438;5.470;2022-09-30T16:44:29;100500.00;;;21.40
15079;BMP180;6932;51.438;5.470;2022-09-30T16:47:01;100504.00;;;21.40
15079;BMP180;6932;51.438;5.470;2022-09-30T16:49:27;100507.00;;;21.30
15079;BMP180;6932;51.438;5.470;2022-09-30T16:51:53;100501.00;;;21.30
15079;BMP180;6932;51.438;5.470;2022-09-30T16:54:18;100500.00;;;21.20
15079;BMP180;6932;51.438;5.470;2022-09-30T16:56:44;100501.00;;;21.20
15079;BMP180;6932;51.438;5.470;2022-09-30T16:59:15;100497.00;;;21.10
15079;BMP180;6932;51.438;5.470;2022-09-30T17:01:42;100499.00;;;21.10
15079;BMP180;6932;51.438;5.470;2022-09-30T17:04:09;100503.00;;;21.00
15079;BMP180;6932;51.438;5.470;2022-09-30T17:06:36;100497.00;;;21.00
15079;BMP180;6932;51.438;5.470;2022-09-30T17:09:03;100501.00;;;21.00
15079;BMP180;6932;51.438;5.470;2022-09-30T17:11:32;100494.00;;;20.90
15079;BMP180;6932;51.438;5.470;2022-09-30T17:14:03;100488.00;;;20.90
15079;BMP180;6932;51.438;5.470;2022-09-30T17:16:29;100484.00;;;20.80
15079;BMP180;6932;51.438;5.470;2022-09-30T17:18:55;100481.00;;;20.80
15079;BMP180;6932;51.438;5.470;2022-09-30T17:21:24;100492.00;;;20.70
15079;BMP180;6932;51.438;5.470;2022-09-30T17:23:51;100476.00;;;20.70
15079;BMP180;6932;51.438;5.470;2022-09-30T17:26:17;100486.00;;;20.70
15079;BMP180;6932;51.438;5.470;2022-09-30T17:29:02;100485.00;;;20.60
15079;BMP180;6932;51.438;5.470;2022-09-30T17:31:27;100485.00;;;20.60
15079;BMP180;6932;51.438;5.470;2022-09-30T17:33:53;100484.00;;;20.50
15079;BMP180;6932;51.438;5.470;2022-09-30T17:36:19;100488.00;;;20.50
15079;BMP180;6932;51.438;5.470;2022-09-30T17:38:44;100489.00;;;20.50
15079;BMP180;6932;51.438;5.470;2022-09-30T17:41:12;100488.00;;;20.40
15079;BMP180;6932;51.438;5.470;2022-09-30T17:43:57;100486.00;;;20.40
15079;BMP180;6932;51.438;5.470;2022-09-30T17:46:27;100490.00;;;20.30
15079;BMP180;6932;51.438;5.470;2022-09-30T17:48:56;100487.00;;;20.30